Mannsville, Oklahoma
Current Conditions -  °F | °C
As of 5:55 PM on Monday 20 Oct 2014 (Local Time) from KADM Reporting Station
Clear Clear  
Wind Chill: 81°   Ceiling: Unl
Heat Index: 82°   Visibility: 10mi
Dew Point: 64°   Wind: 0mph
Humidity: 58%   Direction: NA
Pressure: 30"   Gusts: NA
Location:  34.19°N, 96.88°W
Report Text: KADM 202255Z 00000KT 10SM SKC 27/18 A3000
Loading
Personal Weather Stations






























Interactive Weather Map New forecast layout! Learn more

10-Day Weather Forecast

Advertisements
Track Severe Weather on mobile